sensor_id;sensor_type;location;lat;lon;timestamp;P1;durP1;ratioP1;P2;durP2;ratioP2
61358;SDS011;47228;46.762;23.598;2023-03-23T00:01:12;15.60;;;11.80;;
61358;SDS011;47228;46.762;23.598;2023-03-23T00:03:40;20.00;;;13.70;;
61358;SDS011;47228;46.762;23.598;2023-03-23T00:06:07;20.00;;;13.00;;
61358;SDS011;47228;46.762;23.598;2023-03-23T00:08:36;18.80;;;11.70;;
61358;SDS011;47228;46.762;23.598;2023-03-23T00:11:12;14.00;;;10.30;;
61358;SDS011;47228;46.762;23.598;2023-03-23T00:13:45;15.80;;;10.90;;
61358;SDS011;47228;46.762;23.598;2023-03-23T00:16:13;15.70;;;9.90;;
61358;SDS011;47228;46.762;23.598;2023-03-23T00:18:50;18.80;;;11.70;;
61358;SDS011;47228;46.762;23.598;2023-03-23T00:21:21;24.40;;;14.20;;
61358;SDS011;47228;46.762;23.598;2023-03-23T00:24:07;21.00;;;15.10;;
61358;SDS011;47228;46.762;23.598;2023-03-23T00:26:39;21.20;;;14.30;;
61358;SDS011;47228;46.762;23.598;2023-03-23T00:29:08;23.20;;;15.10;;
61358;SDS011;47228;46.762;23.598;2023-03-23T00:31:42;22.20;;;14.60;;
61358;SDS011;47228;46.762;23.598;2023-03-23T00:34:17;20.30;;;13.90;;
61358;SDS011;47228;46.762;23.598;2023-03-23T00:36:47;19.40;;;12.60;;
61358;SDS011;47228;46.762;23.598;2023-03-23T00:39:15;19.90;;;12.70;;
61358;SDS011;47228;46.762;23.598;2023-03-23T00:41:45;18.90;;;12.80;;
61358;SDS011;47228;46.762;23.598;2023-03-23T00:44:14;17.60;;;12.70;;
61358;SDS011;47228;46.762;23.598;2023-03-23T00:46:44;17.80;;;12.70;;
61358;SDS011;47228;46.762;23.598;2023-03-23T00:49:16;21.20;;;14.10;;
61358;SDS011;47228;46.762;23.598;2023-03-23T00:51:44;21.80;;;14.40;;
61358;SDS011;47228;46.762;23.598;2023-03-23T00:54:11;22.00;;;14.10;;
61358;SDS011;47228;46.762;23.598;2023-03-23T00:56:39;22.30;;;14.10;;
61358;SDS011;47228;46.762;23.598;2023-03-23T00:59:06;17.50;;;12.90;;
61358;SDS011;47228;46.762;23.598;2023-03-23T01:01:33;19.10;;;13.10;;
61358;SDS011;47228;46.762;23.598;2023-03-23T01:04:02;15.30;;;11.20;;
61358;SDS011;47228;46.762;23.598;2023-03-23T01:06:31;20.70;;;12.00;;
61358;SDS011;47228;46.762;23.598;2023-03-23T01:09:01;15.30;;;11.20;;
61358;SDS011;47228;46.762;23.598;2023-03-23T01:11:29;16.00;;;11.60;;
61358;SDS011;47228;46.762;23.598;2023-03-23T01:13:56;16.00;;;11.60;;
61358;SDS011;47228;46.762;23.598;2023-03-23T01:16:23;15.30;;;10.90;;
61358;SDS011;47228;46.762;23.598;2023-03-23T01:18:50;16.20;;;10.90;;
61358;SDS011;47228;46.762;23.598;2023-03-23T01:21:19;15.00;;;10.70;;
61358;SDS011;47228;46.762;23.598;2023-03-23T01:23:47;15.50;;;10.40;;
61358;SDS011;47228;46.762;23.598;2023-03-23T01:26:16;15.50;;;10.20;;
61358;SDS011;47228;46.762;23.598;2023-03-23T01:28:45;16.30;;;10.60;;
61358;SDS011;47228;46.762;23.598;2023-03-23T01:31:14;16.90;;;11.60;;
61358;SDS011;47228;46.762;23.598;2023-03-23T01:33:43;18.10;;;11.70;;
61358;SDS011;47228;46.762;23.598;2023-03-23T01:36:15;19.10;;;12.10;;
61358;SDS011;47228;46.762;23.598;2023-03-23T01:38:44;19.20;;;13.30;;
61358;SDS011;47228;46.762;23.598;2023-03-23T01:41:12;19.10;;;12.80;;
61358;SDS011;47228;46.762;23.598;2023-03-23T01:43:55;19.40;;;12.00;;
61358;SDS011;47228;46.762;23.598;2023-03-23T01:46:35;20.20;;;13.10;;
61358;SDS011;47228;46.762;23.598;2023-03-23T01:49:03;20.90;;;13.70;;
61358;SDS011;47228;46.762;23.598;2023-03-23T01:51:36;21.60;;;13.70;;
61358;SDS011;47228;46.762;23.598;2023-03-23T01:54:08;21.30;;;14.60;;
61358;SDS011;47228;46.762;23.598;2023-03-23T01:56:41;22.60;;;14.20;;
61358;SDS011;47228;46.762;23.598;2023-03-23T01:59:13;21.10;;;14.50;;
61358;SDS011;47228;46.762;23.598;2023-03-23T02:01:41;26.60;;;15.90;;
61358;SDS011;47228;46.762;23.598;2023-03-23T02:04:14;20.20;;;14.00;;
61358;SDS011;47228;46.762;23.598;2023-03-23T02:06:43;20.70;;;14.20;;
61358;SDS011;47228;46.762;23.598;2023-03-23T02:09:11;21.40;;;14.20;;
61358;SDS011;47228;46.762;23.598;2023-03-23T02:11:45;20.20;;;14.70;;
61358;SDS011;47228;46.762;23.598;2023-03-23T02:14:14;20.40;;;14.00;;
61358;SDS011;47228;46.762;23.598;2023-03-23T02:16:45;21.50;;;14.80;;
61358;SDS011;47228;46.762;23.598;2023-03-23T02:31:42;22.50;;;15.10;;
61358;SDS011;47228;46.762;23.598;2023-03-23T02:34:13;23.70;;;15.40;;
61358;SDS011;47228;46.762;23.598;2023-03-23T02:36:46;22.70;;;14.50;;
61358;SDS011;47228;46.762;23.598;2023-03-23T02:39:37;23.60;;;15.00;;
61358;SDS011;47228;46.762;23.598;2023-03-23T02:42:07;22.20;;;15.10;;
61358;SDS011;47228;46.762;23.598;2023-03-23T02:44:36;22.80;;;13.80;;
61358;SDS011;47228;46.762;23.598;2023-03-23T02:47:07;22.40;;;15.40;;
61358;SDS011;47228;46.762;23.598;2023-03-23T02:49:37;23.30;;;15.60;;
61358;SDS011;47228;46.762;23.598;2023-03-23T02:52:10;24.90;;;15.00;;
61358;SDS011;47228;46.762;23.598;2023-03-23T02:54:42;24.70;;;15.90;;
61358;SDS011;47228;46.762;23.598;2023-03-23T02:57:12;24.50;;;14.60;;
61358;SDS011;47228;46.762;23.598;2023-03-23T02:59:39;23.90;;;14.20;;
61358;SDS011;47228;46.762;23.598;2023-03-23T03:13:14;24.40;;;15.00;;
61358;SDS011;47228;46.762;23.598;2023-03-23T03:16:12;26.90;;;16.20;;
61358;SDS011;47228;46.762;23.598;2023-03-23T03:21:47;25.50;;;15.90;;
61358;SDS011;47228;46.762;23.598;2023-03-23T03:24:17;23.90;;;15.70;;
61358;SDS011;47228;46.762;23.598;2023-03-23T03:26:47;24.30;;;15.70;;
61358;SDS011;47228;46.762;23.598;2023-03-23T03:29:17;25.20;;;16.90;;
61358;SDS011;47228;46.762;23.598;2023-03-23T03:31:46;27.70;;;17.30;;
61358;SDS011;47228;46.762;23.598;2023-03-23T03:34:18;25.50;;;16.20;;
61358;SDS011;47228;46.762;23.598;2023-03-23T03:36:45;23.40;;;15.60;;
61358;SDS011;47228;46.762;23.598;2023-03-23T03:39:14;27.30;;;16.90;;
61358;SDS011;47228;46.762;23.598;2023-03-23T03:41:43;27.70;;;17.40;;
61358;SDS011;47228;46.762;23.598;2023-03-23T03:44:10;23.90;;;15.90;;
61358;SDS011;47228;46.762;23.598;2023-03-23T03:46:38;24.00;;;16.30;;
61358;SDS011;47228;46.762;23.598;2023-03-23T03:49:06;25.40;;;15.80;;
61358;SDS011;47228;46.762;23.598;2023-03-23T03:51:35;24.10;;;16.40;;
61358;SDS011;47228;46.762;23.598;2023-03-23T03:54:02;26.60;;;17.70;;
61358;SDS011;47228;46.762;23.598;2023-03-23T03:56:29;26.70;;;16.70;;
61358;SDS011;47228;46.762;23.598;2023-03-23T03:58:57;30.50;;;17.00;;
61358;SDS011;47228;46.762;23.598;2023-03-23T04:01:25;26.80;;;17.20;;
61358;SDS011;47228;46.762;23.598;2023-03-23T04:03:52;31.60;;;18.00;;
61358;SDS011;47228;46.762;23.598;2023-03-23T04:06:19;26.80;;;18.00;;
61358;SDS011;47228;46.762;23.598;2023-03-23T04:08:47;25.80;;;17.60;;
61358;SDS011;47228;46.762;23.598;2023-03-23T04:11:14;28.00;;;16.60;;
61358;SDS011;47228;46.762;23.598;2023-03-23T04:13:42;29.40;;;17.80;;
61358;SDS011;47228;46.762;23.598;2023-03-23T04:16:08;29.00;;;17.20;;
61358;SDS011;47228;46.762;23.598;2023-03-23T04:18:35;27.40;;;17.40;;
61358;SDS011;47228;46.762;23.598;2023-03-23T04:21:02;26.10;;;17.80;;
61358;SDS011;47228;46.762;23.598;2023-03-23T04:23:31;29.50;;;18.10;;
61358;SDS011;47228;46.762;23.598;2023-03-23T04:26:00;29.40;;;18.20;;
61358;SDS011;47228;46.762;23.598;2023-03-23T04:28:29;31.30;;;19.50;;
61358;SDS011;47228;46.762;23.598;2023-03-23T04:31:00;30.60;;;18.00;;
61358;SDS011;47228;46.762;23.598;2023-03-23T04:33:28;29.20;;;18.20;;
61358;SDS011;47228;46.762;23.598;2023-03-23T04:35:59;29.80;;;18.50;;
61358;SDS011;47228;46.762;23.598;2023-03-23T04:38:27;28.90;;;18.40;;
61358;SDS011;47228;46.762;23.598;2023-03-23T04:40:56;30.30;;;18.60;;
61358;SDS011;47228;46.762;23.598;2023-03-23T04:43:23;34.30;;;19.00;;
61358;SDS011;47228;46.762;23.598;2023-03-23T04:45:57;28.90;;;18.20;;
61358;SDS011;47228;46.762;23.598;2023-03-23T04:48:27;33.40;;;18.60;;
61358;SDS011;47228;46.762;23.598;2023-03-23T04:50:56;28.70;;;17.90;;
61358;SDS011;47228;46.762;23.598;2023-03-23T04:53:26;33.80;;;18.00;;
61358;SDS011;47228;46.762;23.598;2023-03-23T04:55:53;29.80;;;18.70;;
61358;SDS011;47228;46.762;23.598;2023-03-23T04:58:19;33.70;;;20.10;;
61358;SDS011;47228;46.762;23.598;2023-03-23T05:00:47;41.90;;;21.50;;
61358;SDS011;47228;46.762;23.598;2023-03-23T05:03:17;37.60;;;19.30;;
61358;SDS011;47228;46.762;23.598;2023-03-23T05:05:44;34.90;;;20.10;;
61358;SDS011;47228;46.762;23.598;2023-03-23T05:08:19;32.40;;;20.20;;
61358;SDS011;47228;46.762;23.598;2023-03-23T05:10:54;37.70;;;22.20;;
61358;SDS011;47228;46.762;23.598;2023-03-23T05:13:23;34.90;;;20.10;;
61358;SDS011;47228;46.762;23.598;2023-03-23T05:15:50;40.90;;;20.50;;
61358;SDS011;47228;46.762;23.598;2023-03-23T05:18:17;42.20;;;21.50;;
61358;SDS011;47228;46.762;23.598;2023-03-23T05:20:46;39.10;;;21.90;;
61358;SDS011;47228;46.762;23.598;2023-03-23T05:23:15;41.90;;;21.40;;
61358;SDS011;47228;46.762;23.598;2023-03-23T05:25:42;40.10;;;21.30;;
61358;SDS011;47228;46.762;23.598;2023-03-23T05:28:10;37.50;;;22.00;;
61358;SDS011;47228;46.762;23.598;2023-03-23T05:30:38;38.80;;;23.00;;
61358;SDS011;47228;46.762;23.598;2023-03-23T05:33:05;44.70;;;22.60;;
61358;SDS011;47228;46.762;23.598;2023-03-23T05:35:32;37.20;;;22.20;;
61358;SDS011;47228;46.762;23.598;2023-03-23T05:38:00;43.10;;;21.20;;
61358;SDS011;47228;46.762;23.598;2023-03-23T05:40:28;47.80;;;22.70;;
61358;SDS011;47228;46.762;23.598;2023-03-23T05:42:55;38.70;;;22.30;;
61358;SDS011;47228;46.762;23.598;2023-03-23T05:45:25;41.90;;;22.80;;
61358;SDS011;47228;46.762;23.598;2023-03-23T05:47:52;40.80;;;22.60;;
61358;SDS011;47228;46.762;23.598;2023-03-23T05:50:19;40.00;;;23.70;;
61358;SDS011;47228;46.762;23.598;2023-03-23T05:52:46;40.00;;;23.30;;
61358;SDS011;47228;46.762;23.598;2023-03-23T05:55:13;43.70;;;23.00;;
61358;SDS011;47228;46.762;23.598;2023-03-23T05:57:40;40.70;;;22.20;;
61358;SDS011;47228;46.762;23.598;2023-03-23T06:00:07;41.90;;;23.20;;
61358;SDS011;47228;46.762;23.598;2023-03-23T06:02:46;40.10;;;23.60;;
61358;SDS011;47228;46.762;23.598;2023-03-23T06:05:14;40.60;;;23.70;;
61358;SDS011;47228;46.762;23.598;2023-03-23T06:07:42;45.00;;;24.80;;
61358;SDS011;47228;46.762;23.598;2023-03-23T06:10:09;45.70;;;25.50;;
61358;SDS011;47228;46.762;23.598;2023-03-23T06:12:37;52.90;;;26.00;;
61358;SDS011;47228;46.762;23.598;2023-03-23T06:15:06;46.40;;;25.40;;
61358;SDS011;47228;46.762;23.598;2023-03-23T06:17:34;47.60;;;25.90;;
61358;SDS011;47228;46.762;23.598;2023-03-23T06:20:03;47.20;;;25.30;;
61358;SDS011;47228;46.762;23.598;2023-03-23T06:22:38;50.30;;;26.90;;
61358;SDS011;47228;46.762;23.598;2023-03-23T06:25:06;51.00;;;24.80;;
61358;SDS011;47228;46.762;23.598;2023-03-23T06:27:35;50.50;;;27.20;;
61358;SDS011;47228;46.762;23.598;2023-03-23T06:30:02;50.60;;;26.40;;
61358;SDS011;47228;46.762;23.598;2023-03-23T06:32:30;53.90;;;28.80;;
61358;SDS011;47228;46.762;23.598;2023-03-23T06:34:58;53.00;;;27.60;;
61358;SDS011;47228;46.762;23.598;2023-03-23T06:37:25;54.00;;;26.90;;
61358;SDS011;47228;46.762;23.598;2023-03-23T06:39:52;53.40;;;28.20;;
61358;SDS011;47228;46.762;23.598;2023-03-23T06:42:21;56.00;;;27.30;;
61358;SDS011;47228;46.762;23.598;2023-03-23T06:44:50;52.10;;;27.40;;
61358;SDS011;47228;46.762;23.598;2023-03-23T06:47:18;61.50;;;29.00;;
61358;SDS011;47228;46.762;23.598;2023-03-23T06:49:44;57.60;;;30.30;;
61358;SDS011;47228;46.762;23.598;2023-03-23T06:52:11;51.70;;;28.10;;
61358;SDS011;47228;46.762;23.598;2023-03-23T06:54:38;60.90;;;30.50;;
61358;SDS011;47228;46.762;23.598;2023-03-23T06:57:04;54.60;;;29.60;;
61358;SDS011;47228;46.762;23.598;2023-03-23T06:59:32;57.20;;;32.40;;
61358;SDS011;47228;46.762;23.598;2023-03-23T07:01:58;61.30;;;32.00;;
61358;SDS011;47228;46.762;23.598;2023-03-23T07:04:25;64.50;;;34.60;;
61358;SDS011;47228;46.762;23.598;2023-03-23T07:06:52;55.40;;;30.70;;
61358;SDS011;47228;46.762;23.598;2023-03-23T07:09:19;57.40;;;30.50;;
61358;SDS011;47228;46.762;23.598;2023-03-23T07:11:46;57.60;;;31.20;;
61358;SDS011;47228;46.762;23.598;2023-03-23T07:14:14;62.40;;;30.90;;
61358;SDS011;47228;46.762;23.598;2023-03-23T07:16:41;57.30;;;30.20;;
61358;SDS011;47228;46.762;23.598;2023-03-23T07:19:08;60.50;;;31.00;;
61358;SDS011;47228;46.762;23.598;2023-03-23T07:21:35;58.00;;;31.50;;
61358;SDS011;47228;46.762;23.598;2023-03-23T07:24:03;61.60;;;32.70;;
61358;SDS011;47228;46.762;23.598;2023-03-23T07:26:30;66.80;;;33.30;;
61358;SDS011;47228;46.762;23.598;2023-03-23T07:28:56;63.30;;;33.20;;
61358;SDS011;47228;46.762;23.598;2023-03-23T07:31:23;60.50;;;31.90;;
61358;SDS011;47228;46.762;23.598;2023-03-23T07:33:50;62.70;;;34.20;;
61358;SDS011;47228;46.762;23.598;2023-03-23T07:36:18;68.20;;;34.30;;
61358;SDS011;47228;46.762;23.598;2023-03-23T07:38:44;65.40;;;35.80;;
61358;SDS011;47228;46.762;23.598;2023-03-23T07:41:11;72.30;;;36.10;;
61358;SDS011;47228;46.762;23.598;2023-03-23T07:43:38;69.90;;;39.00;;
61358;SDS011;47228;46.762;23.598;2023-03-23T07:46:05;90.70;;;37.90;;
61358;SDS011;47228;46.762;23.598;2023-03-23T07:48:32;81.70;;;40.60;;
61358;SDS011;47228;46.762;23.598;2023-03-23T07:51:02;80.30;;;42.60;;
61358;SDS011;47228;46.762;23.598;2023-03-23T07:53:29;74.30;;;40.10;;
61358;SDS011;47228;46.762;23.598;2023-03-23T07:55:55;78.00;;;40.50;;
61358;SDS011;47228;46.762;23.598;2023-03-23T07:58:22;71.70;;;37.60;;
61358;SDS011;47228;46.762;23.598;2023-03-23T08:00:49;67.20;;;35.80;;
61358;SDS011;47228;46.762;23.598;2023-03-23T08:03:16;64.70;;;35.10;;
61358;SDS011;47228;46.762;23.598;2023-03-23T08:05:43;65.40;;;33.30;;
61358;SDS011;47228;46.762;23.598;2023-03-23T08:08:10;64.00;;;35.40;;
61358;SDS011;47228;46.762;23.598;2023-03-23T08:10:37;58.70;;;33.00;;
61358;SDS011;47228;46.762;23.598;2023-03-23T08:13:04;59.50;;;32.60;;
61358;SDS011;47228;46.762;23.598;2023-03-23T08:15:32;73.00;;;34.70;;
61358;SDS011;47228;46.762;23.598;2023-03-23T08:18:03;67.40;;;36.20;;
61358;SDS011;47228;46.762;23.598;2023-03-23T08:20:31;74.90;;;36.40;;
61358;SDS011;47228;46.762;23.598;2023-03-23T08:22:59;67.30;;;35.80;;
61358;SDS011;47228;46.762;23.598;2023-03-23T08:25:26;60.80;;;34.50;;
61358;SDS011;47228;46.762;23.598;2023-03-23T08:27:53;60.30;;;34.30;;
61358;SDS011;47228;46.762;23.598;2023-03-23T08:30:21;61.50;;;33.40;;
61358;SDS011;47228;46.762;23.598;2023-03-23T08:32:56;64.80;;;34.60;;
61358;SDS011;47228;46.762;23.598;2023-03-23T08:35:24;63.80;;;35.10;;
61358;SDS011;47228;46.762;23.598;2023-03-23T08:37:51;59.20;;;33.60;;
61358;SDS011;47228;46.762;23.598;2023-03-23T08:40:19;62.60;;;34.00;;
61358;SDS011;47228;46.762;23.598;2023-03-23T08:42:49;61.80;;;31.90;;
61358;SDS011;47228;46.762;23.598;2023-03-23T08:45:18;53.20;;;30.70;;
61358;SDS011;47228;46.762;23.598;2023-03-23T08:47:49;55.60;;;31.40;;
61358;SDS011;47228;46.762;23.598;2023-03-23T08:50:19;53.30;;;30.60;;
61358;SDS011;47228;46.762;23.598;2023-03-23T08:52:49;52.40;;;29.60;;
61358;SDS011;47228;46.762;23.598;2023-03-23T08:55:17;49.80;;;29.10;;
61358;SDS011;47228;46.762;23.598;2023-03-23T08:57:44;55.80;;;32.30;;
61358;SDS011;47228;46.762;23.598;2023-03-23T09:00:13;51.50;;;28.80;;
61358;SDS011;47228;46.762;23.598;2023-03-23T09:02:46;47.20;;;27.10;;
61358;SDS011;47228;46.762;23.598;2023-03-23T09:05:15;50.20;;;28.30;;
61358;SDS011;47228;46.762;23.598;2023-03-23T09:07:46;48.00;;;27.70;;
61358;SDS011;47228;46.762;23.598;2023-03-23T09:10:14;44.80;;;26.90;;
61358;SDS011;47228;46.762;23.598;2023-03-23T09:12:42;46.80;;;27.40;;
61358;SDS011;47228;46.762;23.598;2023-03-23T09:15:11;42.40;;;24.90;;
61358;SDS011;47228;46.762;23.598;2023-03-23T09:17:42;44.60;;;26.70;;
61358;SDS011;47228;46.762;23.598;2023-03-23T09:20:12;39.60;;;22.90;;
61358;SDS011;47228;46.762;23.598;2023-03-23T09:22:42;32.70;;;20.50;;
61358;SDS011;47228;46.762;23.598;2023-03-23T09:25:14;36.70;;;20.90;;
61358;SDS011;47228;46.762;23.598;2023-03-23T09:27:43;32.20;;;21.40;;
61358;SDS011;47228;46.762;23.598;2023-03-23T09:30:13;35.20;;;20.90;;
61358;SDS011;47228;46.762;23.598;2023-03-23T09:32:45;32.20;;;20.10;;
61358;SDS011;47228;46.762;23.598;2023-03-23T09:35:14;32.80;;;19.40;;
61358;SDS011;47228;46.762;23.598;2023-03-23T09:37:43;31.80;;;20.00;;
61358;SDS011;47228;46.762;23.598;2023-03-23T09:40:12;40.20;;;20.10;;
61358;SDS011;47228;46.762;23.598;2023-03-23T09:48:46;27.70;;;16.80;;
61358;SDS011;47228;46.762;23.598;2023-03-23T09:56:47;21.10;;;14.30;;
61358;SDS011;47228;46.762;23.598;2023-03-23T09:59:20;27.00;;;14.90;;
61358;SDS011;47228;46.762;23.598;2023-03-23T10:02:18;21.90;;;13.90;;
61358;SDS011;47228;46.762;23.598;2023-03-23T10:04:54;21.50;;;13.90;;
61358;SDS011;47228;46.762;23.598;2023-03-23T10:07:26;20.20;;;12.30;;
61358;SDS011;47228;46.762;23.598;2023-03-23T10:09:57;19.10;;;12.40;;
61358;SDS011;47228;46.762;23.598;2023-03-23T10:12:36;17.30;;;12.00;;
61358;SDS011;47228;46.762;23.598;2023-03-23T10:20:32;16.70;;;10.90;;
61358;SDS011;47228;46.762;23.598;2023-03-23T10:28:38;15.10;;;10.50;;
61358;SDS011;47228;46.762;23.598;2023-03-23T10:31:17;15.10;;;9.50;;
61358;SDS011;47228;46.762;23.598;2023-03-23T10:33:49;13.10;;;9.60;;
61358;SDS011;47228;46.762;23.598;2023-03-23T10:36:30;14.20;;;9.30;;
61358;SDS011;47228;46.762;23.598;2023-03-23T10:39:12;15.60;;;9.80;;
61358;SDS011;47228;46.762;23.598;2023-03-23T10:41:41;15.00;;;10.60;;
61358;SDS011;47228;46.762;23.598;2023-03-23T10:44:09;16.40;;;10.60;;
61358;SDS011;47228;46.762;23.598;2023-03-23T10:46:46;14.80;;;10.70;;
61358;SDS011;47228;46.762;23.598;2023-03-23T10:49:29;13.70;;;10.40;;
61358;SDS011;47228;46.762;23.598;2023-03-23T10:54:50;12.80;;;9.10;;
61358;SDS011;47228;46.762;23.598;2023-03-23T10:57:25;12.00;;;9.00;;
61358;SDS011;47228;46.762;23.598;2023-03-23T11:00:29;12.40;;;9.90;;
61358;SDS011;47228;46.762;23.598;2023-03-23T11:03:27;12.90;;;9.60;;
61358;SDS011;47228;46.762;23.598;2023-03-23T11:08:48;12.60;;;9.80;;
61358;SDS011;47228;46.762;23.598;2023-03-23T11:11:29;10.30;;;7.60;;
61358;SDS011;47228;46.762;23.598;2023-03-23T11:14:11;11.00;;;8.70;;
61358;SDS011;47228;46.762;23.598;2023-03-23T11:16:45;13.00;;;9.00;;
61358;SDS011;47228;46.762;23.598;2023-03-23T11:19:53;12.40;;;8.50;;
61358;SDS011;47228;46.762;23.598;2023-03-23T11:24:55;11.60;;;9.00;;
61358;SDS011;47228;46.762;23.598;2023-03-23T11:27:26;10.30;;;8.40;;
61358;SDS011;47228;46.762;23.598;2023-03-23T11:29:55;13.20;;;8.60;;
61358;SDS011;47228;46.762;23.598;2023-03-23T11:32:28;11.20;;;8.30;;
61358;SDS011;47228;46.762;23.598;2023-03-23T11:34:59;13.10;;;9.00;;
61358;SDS011;47228;46.762;23.598;2023-03-23T11:37:43;10.30;;;8.20;;
61358;SDS011;47228;46.762;23.598;2023-03-23T11:40:15;10.80;;;8.40;;
61358;SDS011;47228;46.762;23.598;2023-03-23T11:42:59;10.90;;;8.60;;
61358;SDS011;47228;46.762;23.598;2023-03-23T11:45:34;12.10;;;8.20;;
61358;SDS011;47228;46.762;23.598;2023-03-23T11:56:33;13.40;;;7.90;;
61358;SDS011;47228;46.762;23.598;2023-03-23T11:59:03;14.40;;;8.10;;
61358;SDS011;47228;46.762;23.598;2023-03-23T12:20:49;11.20;;;7.50;;
61358;SDS011;47228;46.762;23.598;2023-03-23T12:26:28;12.40;;;8.00;;
61358;SDS011;47228;46.762;23.598;2023-03-23T12:34:52;10.40;;;7.20;;
61358;SDS011;47228;46.762;23.598;2023-03-23T12:43:28;12.00;;;8.00;;
61358;SDS011;47228;46.762;23.598;2023-03-23T12:46:15;10.80;;;7.40;;
61358;SDS011;47228;46.762;23.598;2023-03-23T12:48:49;9.80;;;7.00;;
61358;SDS011;47228;46.762;23.598;2023-03-23T12:51:26;10.30;;;7.60;;
61358;SDS011;47228;46.762;23.598;2023-03-23T12:54:03;10.40;;;7.20;;
61358;SDS011;47228;46.762;23.598;2023-03-23T13:02:22;10.00;;;7.50;;
61358;SDS011;47228;46.762;23.598;2023-03-23T13:04:58;11.00;;;7.60;;
61358;SDS011;47228;46.762;23.598;2023-03-23T13:07:33;9.90;;;6.80;;
61358;SDS011;47228;46.762;23.598;2023-03-23T13:10:12;9.40;;;7.30;;
61358;SDS011;47228;46.762;23.598;2023-03-23T13:12:46;10.80;;;7.40;;
61358;SDS011;47228;46.762;23.598;2023-03-23T13:18:18;12.10;;;8.50;;
61358;SDS011;47228;46.762;23.598;2023-03-23T13:20:58;11.10;;;8.50;;
61358;SDS011;47228;46.762;23.598;2023-03-23T13:23:49;12.30;;;7.80;;
61358;SDS011;47228;46.762;23.598;2023-03-23T13:26:21;11.90;;;7.90;;
61358;SDS011;47228;46.762;23.598;2023-03-23T13:28:54;10.80;;;7.90;;
61358;SDS011;47228;46.762;23.598;2023-03-23T13:31:22;13.00;;;7.80;;
61358;SDS011;47228;46.762;23.598;2023-03-23T13:33:53;10.60;;;7.40;;
61358;SDS011;47228;46.762;23.598;2023-03-23T13:36:29;10.10;;;7.90;;
61358;SDS011;47228;46.762;23.598;2023-03-23T13:39:00;12.30;;;7.90;;
61358;SDS011;47228;46.762;23.598;2023-03-23T13:41:29;15.40;;;8.20;;
61358;SDS011;47228;46.762;23.598;2023-03-23T13:44:16;11.00;;;7.70;;
61358;SDS011;47228;46.762;23.598;2023-03-23T13:49:54;10.80;;;7.80;;
61358;SDS011;47228;46.762;23.598;2023-03-23T13:52:25;13.10;;;8.40;;
61358;SDS011;47228;46.762;23.598;2023-03-23T13:58:09;10.50;;;8.20;;
61358;SDS011;47228;46.762;23.598;2023-03-23T14:00:49;10.80;;;7.30;;
61358;SDS011;47228;46.762;23.598;2023-03-23T14:03:40;10.20;;;7.20;;
61358;SDS011;47228;46.762;23.598;2023-03-23T14:06:14;9.00;;;7.10;;
61358;SDS011;47228;46.762;23.598;2023-03-23T14:08:44;10.80;;;7.40;;
61358;SDS011;47228;46.762;23.598;2023-03-23T14:13:51;10.30;;;7.00;;
61358;SDS011;47228;46.762;23.598;2023-03-23T14:16:48;10.10;;;7.20;;
61358;SDS011;47228;46.762;23.598;2023-03-23T14:21:56;9.90;;;7.20;;
61358;SDS011;47228;46.762;23.598;2023-03-23T14:24:25;8.40;;;7.00;;
61358;SDS011;47228;46.762;23.598;2023-03-23T14:27:10;9.70;;;7.10;;
61358;SDS011;47228;46.762;23.598;2023-03-23T14:29:40;11.20;;;7.10;;
61358;SDS011;47228;46.762;23.598;2023-03-23T14:32:07;10.80;;;6.80;;
61358;SDS011;47228;46.762;23.598;2023-03-23T14:34:40;11.40;;;7.40;;
61358;SDS011;47228;46.762;23.598;2023-03-23T14:37:09;9.50;;;7.20;;
61358;SDS011;47228;46.762;23.598;2023-03-23T14:39:39;8.60;;;6.90;;
61358;SDS011;47228;46.762;23.598;2023-03-23T14:42:10;11.20;;;7.00;;
61358;SDS011;47228;46.762;23.598;2023-03-23T14:44:41;11.50;;;7.30;;
61358;SDS011;47228;46.762;23.598;2023-03-23T14:47:20;9.40;;;7.00;;
61358;SDS011;47228;46.762;23.598;2023-03-23T14:49:53;12.70;;;7.20;;
61358;SDS011;47228;46.762;23.598;2023-03-23T14:52:23;9.10;;;6.80;;
61358;SDS011;47228;46.762;23.598;2023-03-23T14:54:52;10.30;;;7.10;;
61358;SDS011;47228;46.762;23.598;2023-03-23T14:59:52;10.40;;;7.50;;
61358;SDS011;47228;46.762;23.598;2023-03-23T15:04:51;13.30;;;7.20;;
61358;SDS011;47228;46.762;23.598;2023-03-23T15:07:25;10.40;;;7.60;;
61358;SDS011;47228;46.762;23.598;2023-03-23T15:09:57;9.60;;;7.40;;
61358;SDS011;47228;46.762;23.598;2023-03-23T15:12:29;9.30;;;7.30;;
61358;SDS011;47228;46.762;23.598;2023-03-23T15:15:02;10.50;;;7.20;;
61358;SDS011;47228;46.762;23.598;2023-03-23T15:17:34;10.30;;;7.00;;
61358;SDS011;47228;46.762;23.598;2023-03-23T15:23:16;10.80;;;6.70;;
61358;SDS011;47228;46.762;23.598;2023-03-23T15:25:49;11.10;;;7.40;;
61358;SDS011;47228;46.762;23.598;2023-03-23T15:28:22;9.80;;;7.10;;
61358;SDS011;47228;46.762;23.598;2023-03-23T15:31:03;9.90;;;6.90;;
61358;SDS011;47228;46.762;23.598;2023-03-23T15:33:35;11.10;;;7.40;;
61358;SDS011;47228;46.762;23.598;2023-03-23T15:36:07;10.40;;;7.10;;
61358;SDS011;47228;46.762;23.598;2023-03-23T15:38:45;10.30;;;7.20;;
61358;SDS011;47228;46.762;23.598;2023-03-23T15:41:23;11.20;;;7.30;;
61358;SDS011;47228;46.762;23.598;2023-03-23T15:43:55;11.50;;;7.60;;
61358;SDS011;47228;46.762;23.598;2023-03-23T15:46:26;18.00;;;7.50;;
61358;SDS011;47228;46.762;23.598;2023-03-23T15:49:08;11.00;;;7.30;;
61358;SDS011;47228;46.762;23.598;2023-03-23T15:51:37;11.10;;;8.20;;
61358;SDS011;47228;46.762;23.598;2023-03-23T15:54:05;11.20;;;7.90;;
61358;SDS011;47228;46.762;23.598;2023-03-23T15:56:35;13.00;;;8.40;;
61358;SDS011;47228;46.762;23.598;2023-03-23T15:59:03;10.00;;;7.30;;
61358;SDS011;47228;46.762;23.598;2023-03-23T16:01:31;10.90;;;7.90;;
61358;SDS011;47228;46.762;23.598;2023-03-23T16:04:06;12.90;;;7.70;;
61358;SDS011;47228;46.762;23.598;2023-03-23T16:06:37;14.10;;;7.80;;
61358;SDS011;47228;46.762;23.598;2023-03-23T16:09:06;12.20;;;7.70;;
61358;SDS011;47228;46.762;23.598;2023-03-23T16:11:37;12.40;;;7.80;;
61358;SDS011;47228;46.762;23.598;2023-03-23T16:14:05;14.40;;;8.50;;
61358;SDS011;47228;46.762;23.598;2023-03-23T16:16:43;12.20;;;7.80;;
61358;SDS011;47228;46.762;23.598;2023-03-23T16:19:17;13.00;;;7.90;;
61358;SDS011;47228;46.762;23.598;2023-03-23T16:21:47;12.10;;;8.60;;
61358;SDS011;47228;46.762;23.598;2023-03-23T16:24:15;10.70;;;7.90;;
61358;SDS011;47228;46.762;23.598;2023-03-23T16:26:42;10.60;;;7.90;;
61358;SDS011;47228;46.762;23.598;2023-03-23T16:29:11;11.80;;;8.90;;
61358;SDS011;47228;46.762;23.598;2023-03-23T16:32:00;11.30;;;8.10;;
61358;SDS011;47228;46.762;23.598;2023-03-23T16:34:28;12.30;;;7.80;;
61358;SDS011;47228;46.762;23.598;2023-03-23T16:37:00;12.80;;;9.40;;
61358;SDS011;47228;46.762;23.598;2023-03-23T16:39:28;11.70;;;9.20;;
61358;SDS011;47228;46.762;23.598;2023-03-23T16:41:56;11.80;;;8.70;;
61358;SDS011;47228;46.762;23.598;2023-03-23T16:44:24;12.50;;;8.80;;